createdAt,value
2023-05-19T00:00:41.809Z,102350.13
2023-05-19T00:03:24.617Z,102349.41
2023-05-19T00:06:01.899Z,102359.63
2023-05-19T00:08:34.876Z,102360.59
2023-05-19T00:11:07.972Z,102357.56
2023-05-19T00:13:40.849Z,102355.81
2023-05-19T00:16:15.056Z,102356.69
2023-05-19T00:18:47.951Z,102363.41
2023-05-19T00:21:47.722Z,102358.50
2023-05-19T00:24:59.471Z,102355.34
2023-05-19T00:27:31.494Z,102358.72
2023-05-19T00:30:04.667Z,102356.75
2023-05-19T00:32:36.697Z,102352.22
2023-05-19T00:35:13.005Z,102350.78
2023-05-19T00:37:47.521Z,102346.25
2023-05-19T00:40:21.013Z,102352.34
2023-05-19T00:42:53.196Z,102348.69
2023-05-19T00:45:25.837Z,102353.31
2023-05-19T00:47:57.735Z,102350.63
2023-05-19T00:50:31.552Z,102349.34
2023-05-19T00:53:06.410Z,102350.53
2023-05-19T00:55:42.091Z,102350.19
2023-05-19T00:58:15.131Z,102347.56
2023-05-19T01:00:50.232Z,102350.13
2023-05-19T01:03:22.171Z,102344.94
2023-05-19T01:05:55.195Z,102350.19
2023-05-19T01:08:32.094Z,102350.94
2023-05-19T01:11:04.920Z,102354.31
2023-05-19T01:13:39.716Z,102345.34
2023-05-19T01:16:17.346Z,102350.81
2023-05-19T01:18:56.895Z,102345.47
2023-05-19T01:21:58.818Z,102342.59
2023-05-19T01:24:59.877Z,102344.69
2023-05-19T01:30:42.415Z,102340.56
2023-05-19T01:33:17.430Z,102342.19
2023-05-19T01:35:50.779Z,102354.97
2023-05-19T01:38:24.431Z,102355.88
2023-05-19T01:41:01.726Z,102346.41
2023-05-19T01:43:34.649Z,102353.84
2023-05-19T01:46:10.794Z,102352.97
2023-05-19T01:48:43.574Z,102345.81
2023-05-19T01:51:17.893Z,102348.72
2023-05-19T01:53:50.425Z,102347.09
2023-05-19T01:56:30.415Z,102349.78
2023-05-19T01:59:14.618Z,102344.13
2023-05-19T02:01:55.146Z,102354.06
2023-05-19T02:04:40.571Z,102352.25
2023-05-19T02:07:20.612Z,102351.19
2023-05-19T02:10:03.298Z,102346.59
2023-05-19T02:12:38.400Z,102344.56
2023-05-19T02:15:14.739Z,102355.16
2023-05-19T02:17:52.258Z,102346.06
2023-05-19T02:20:25.481Z,102354.09
2023-05-19T02:22:57.765Z,102349.81
2023-05-19T02:25:31.038Z,102343.72
2023-05-19T02:28:03.392Z,102343.28
2023-05-19T02:30:36.315Z,102342.63
2023-05-19T02:33:11.852Z,102337.09
2023-05-19T02:35:44.796Z,102347.34
2023-05-19T02:38:17.402Z,102341.13
2023-05-19T02:40:50.712Z,102344.13
2023-05-19T02:43:23.194Z,102339.63
2023-05-19T02:46:03.430Z,102335.03
2023-05-19T02:48:38.452Z,102339.09
2023-05-19T02:51:11.158Z,102339.50
2023-05-19T02:53:43.055Z,102342.16
2023-05-19T02:56:18.140Z,102347.72
2023-05-19T02:58:50.215Z,102346.31
2023-05-19T03:01:40.862Z,102341.19
2023-05-19T03:04:15.436Z,102346.56
2023-05-19T03:06:47.918Z,102341.19
2023-05-19T03:09:19.957Z,102334.66
2023-05-19T03:11:52.457Z,102331.22
2023-05-19T03:14:25.309Z,102342.97
2023-05-19T03:16:57.882Z,102337.16
2023-05-19T03:19:35.653Z,102339.84
2023-05-19T03:22:10.955Z,102330.91
2023-05-19T03:24:42.845Z,102337.25
2023-05-19T03:27:16.976Z,102325.34
2023-05-19T03:29:48.776Z,102333.81
2023-05-19T03:32:21.470Z,102336.28
2023-05-19T03:34:56.582Z,102329.41
2023-05-19T03:37:28.941Z,102333.16
2023-05-19T03:40:00.924Z,102340.00
2023-05-19T03:42:40.898Z,102333.50
2023-05-19T03:45:13.609Z,102329.13
2023-05-19T03:47:47.037Z,102329.69
2023-05-19T03:50:21.819Z,102336.56
2023-05-19T03:52:54.177Z,102326.63
2023-05-19T03:55:26.946Z,102345.72
2023-05-19T03:57:59.909Z,102324.44
2023-05-19T04:00:31.935Z,102320.97
2023-05-19T04:03:04.572Z,102331.31
2023-05-19T04:05:39.425Z,102328.88
2023-05-19T04:08:12.020Z,102329.72
2023-05-19T04:10:43.876Z,102336.44
2023-05-19T04:13:16.375Z,102327.81
2023-05-19T04:15:48.270Z,102335.09
2023-05-19T04:18:22.216Z,102329.38
2023-05-19T04:20:56.805Z,102334.31
2023-05-19T04:23:29.245Z,102336.94
2023-05-19T04:26:02.470Z,102337.97
2023-05-19T04:28:37.194Z,102337.84
2023-05-19T04:31:11.287Z,102345.78
2023-05-19T04:33:44.414Z,102345.13
2023-05-19T04:36:21.908Z,102347.22
2023-05-19T04:39:05.068Z,102352.72
2023-05-19T04:41:40.674Z,102349.56
2023-05-19T04:44:13.901Z,102342.22
2023-05-19T04:46:45.763Z,102341.88
2023-05-19T04:49:19.679Z,102341.28
2023-05-19T04:51:55.925Z,102342.59
2023-05-19T04:54:29.257Z,102343.72
2023-05-19T04:57:01.374Z,102350.84
2023-05-19T04:59:34.220Z,102347.41
2023-05-19T05:02:06.718Z,102353.00
2023-05-19T05:04:43.037Z,102346.06
2023-05-19T05:07:18.033Z,102344.44
2023-05-19T05:09:58.148Z,102342.09
2023-05-19T05:12:31.373Z,102335.50
2023-05-19T05:15:13.335Z,102337.19
2023-05-19T05:17:45.877Z,102346.09
2023-05-19T05:20:21.060Z,102344.13
2023-05-19T05:22:56.209Z,102350.47
2023-05-19T05:25:29.349Z,102340.94
2023-05-19T05:28:05.508Z,102351.59
2023-05-19T05:30:49.641Z,102345.94
2023-05-19T05:33:25.276Z,102347.19
2023-05-19T05:36:17.314Z,102348.19
2023-05-19T05:39:18.644Z,102347.91
2023-05-19T05:41:58.003Z,102341.25
2023-05-19T05:44:54.030Z,102342.25
2023-05-19T05:47:34.772Z,102346.22
2023-05-19T05:50:23.603Z,102341.03
2023-05-19T05:53:23.323Z,102346.94
2023-05-19T05:59:45.469Z,102346.06
2023-05-19T06:03:02.817Z,102337.09
2023-05-19T06:05:41.340Z,102346.50
2023-05-19T06:08:43.300Z,102335.13
2023-05-19T06:15:14.759Z,102340.56
2023-05-19T06:16:02.742Z,102337.97
2023-05-19T06:19:16.416Z,102342.69
2023-05-19T06:22:40.235Z,102343.38
2023-05-19T06:25:45.579Z,102346.31
2023-05-19T06:28:23.554Z,102354.06
2023-05-19T06:31:07.967Z,102342.69
2023-05-19T06:33:44.075Z,102347.38
2023-05-19T06:36:51.241Z,102342.69
2023-05-19T06:39:39.596Z,102346.31
2023-05-19T06:45:08.925Z,102350.91
2023-05-19T06:45:52.097Z,102339.41
2023-05-19T06:48:29.059Z,102337.47
2023-05-19T06:51:05.335Z,102341.97
2023-05-19T06:53:41.297Z,102341.16
2023-05-19T06:59:27.578Z,102338.34
2023-05-19T07:02:03.685Z,102339.66
2023-05-19T07:04:23.242Z,102338.81
2023-05-19T07:11:58.403Z,102333.34
2023-05-19T07:15:02.881Z,102342.09
2023-05-19T07:17:43.198Z,102330.28
2023-05-19T07:20:16.278Z,102328.47
2023-05-19T07:22:51.734Z,102332.31
2023-05-19T07:25:23.767Z,102332.16
2023-05-19T07:27:56.751Z,102329.00
2023-05-19T07:30:30.343Z,102340.84
2023-05-19T07:33:08.390Z,102343.41
2023-05-19T07:35:42.447Z,102337.84
2023-05-19T07:38:24.977Z,102334.72
2023-05-19T07:41:04.418Z,102327.94
2023-05-19T07:43:37.605Z,102329.81
2023-05-19T07:46:13.467Z,102331.59
2023-05-19T07:48:48.448Z,102327.47
2023-05-19T07:51:20.607Z,102326.84
2023-05-19T07:53:59.666Z,102313.75
2023-05-19T07:56:34.675Z,102326.06
2023-05-19T07:59:08.538Z,102331.34
2023-05-19T08:01:40.502Z,102317.22
2023-05-19T08:04:16.521Z,102315.81
2023-05-19T08:06:48.765Z,102314.38
2023-05-19T08:09:26.544Z,102311.97
2023-05-19T08:12:02.043Z,102316.41
2023-05-19T08:14:35.383Z,102315.78
2023-05-19T08:17:07.654Z,102310.75
2023-05-19T08:22:50.249Z,102312.81
2023-05-19T08:25:43.495Z,102314.53
2023-05-19T08:28:16.472Z,102315.16
2023-05-19T08:30:49.392Z,102319.53
2023-05-19T08:33:22.009Z,102323.56
2023-05-19T08:35:55.833Z,102326.56
2023-05-19T08:38:27.709Z,102317.91
2023-05-19T08:41:03.951Z,102320.44
2023-05-19T08:43:37.395Z,102318.13
2023-05-19T08:46:17.339Z,102308.81
2023-05-19T08:48:53.790Z,102313.47
2023-05-19T08:51:37.593Z,102310.66
2023-05-19T08:54:19.122Z,102313.88
2023-05-19T08:56:58.537Z,102310.63
2023-05-19T09:28:36.839Z,102283.72
2023-05-19T09:31:12.479Z,102259.84
2023-05-19T09:33:49.788Z,102271.03
2023-05-19T09:36:28.049Z,102258.94
2023-05-19T09:39:00.441Z,102269.59
2023-05-19T09:41:33.528Z,102255.00
2023-05-19T09:44:08.721Z,102258.81
2023-05-19T09:46:41.714Z,102261.56
2023-05-19T09:49:18.909Z,102267.56
2023-05-19T09:51:58.989Z,102270.03
2023-05-19T09:54:32.703Z,102264.34
2023-05-19T09:57:08.781Z,102264.34
2023-05-19T09:59:46.043Z,102259.63
2023-05-19T10:05:21.988Z,102249.75
2023-05-19T10:08:13.036Z,102250.72
2023-05-19T10:10:47.897Z,102238.97
2023-05-19T10:13:21.710Z,102239.41
2023-05-19T10:15:59.691Z,102238.16
2023-05-19T10:18:34.381Z,102228.56
2023-05-19T10:21:10.308Z,102245.66
2023-05-19T10:23:43.556Z,102243.66
2023-05-19T10:26:17.019Z,102242.47
2023-05-19T10:28:49.595Z,102242.44
2023-05-19T10:31:26.840Z,102234.56
2023-05-19T10:34:26.218Z,102231.34
2023-05-19T10:37:13.353Z,102245.34
2023-05-19T10:39:49.247Z,102232.03
2023-05-19T10:42:38.589Z,102225.47
2023-05-19T10:45:33.435Z,102226.75
2023-05-19T10:48:09.881Z,102230.75
2023-05-19T10:50:50.494Z,102225.00
2023-05-19T10:53:23.438Z,102222.22
2023-05-19T10:55:59.467Z,102224.66
2023-05-19T10:58:42.111Z,102204.97
2023-05-19T11:01:19.338Z,102222.81
2023-05-19T11:03:55.457Z,102224.06
2023-05-19T11:07:06.993Z,102219.88
2023-05-19T11:09:51.000Z,102211.22
2023-05-19T11:12:27.471Z,102221.97
2023-05-19T11:15:03.489Z,102211.28
2023-05-19T11:17:38.635Z,102218.00
2023-05-19T11:20:26.861Z,102216.09
2023-05-19T11:23:11.210Z,102208.19
2023-05-19T11:25:51.956Z,102203.94
2023-05-19T11:28:29.752Z,102208.25
2023-05-19T11:31:03.070Z,102199.59
2023-05-19T11:33:39.036Z,102201.63
2023-05-19T11:36:17.229Z,102199.63
2023-05-19T11:38:52.030Z,102192.31
2023-05-19T11:41:29.358Z,102189.88
2023-05-19T11:44:07.322Z,102197.44
2023-05-19T11:46:42.824Z,102187.44
2023-05-19T11:49:20.960Z,102191.78
2023-05-19T11:52:01.136Z,102186.84
2023-05-19T11:54:43.186Z,102193.91
2023-05-19T11:57:18.990Z,102187.44
2023-05-19T11:59:57.248Z,102191.44
2023-05-19T12:02:32.173Z,102183.78
2023-05-19T12:05:04.755Z,102192.47
2023-05-19T12:07:42.251Z,102192.47
2023-05-19T12:10:16.149Z,102192.88
2023-05-19T12:12:54.512Z,102199.13
2023-05-19T12:15:29.576Z,102194.78
2023-05-19T12:18:02.834Z,102186.50
2023-05-19T12:20:39.430Z,102190.94
2023-05-19T12:23:17.079Z,102182.22
2023-05-19T12:25:52.490Z,102185.34
2023-05-19T12:28:31.307Z,102187.25
2023-05-19T12:31:44.078Z,102184.81
2023-05-19T12:34:20.274Z,102185.94
2023-05-19T12:37:00.959Z,102175.91
2023-05-19T12:39:41.916Z,102172.22
2023-05-19T12:42:21.838Z,102182.66
2023-05-19T12:44:55.389Z,102175.75
2023-05-19T12:47:36.391Z,102164.06
2023-05-19T12:50:11.300Z,102160.31
2023-05-19T12:53:09.709Z,102167.94
2023-05-19T12:58:53.771Z,102164.00
2023-05-19T13:01:42.354Z,102165.09
2023-05-19T13:07:33.215Z,102147.78
2023-05-19T13:10:20.130Z,102158.13
2023-05-19T13:22:11.735Z,102151.47
2023-05-19T13:25:02.715Z,102162.88
2023-05-19T13:27:41.926Z,102140.94
2023-05-19T13:34:02.061Z,102153.34
2023-05-19T13:39:52.046Z,102147.78
2023-05-19T13:58:25.082Z,102155.31
2023-05-19T14:04:42.467Z,102153.47
2023-05-19T14:10:36.533Z,102152.22
2023-05-19T14:16:05.165Z,102155.06
2023-05-19T14:18:41.997Z,102150.00
2023-05-19T14:21:29.955Z,102158.00
2023-05-19T14:24:07.074Z,102150.09
2023-05-19T14:26:48.450Z,102162.22
2023-05-19T14:29:28.586Z,102151.41
2023-05-19T14:32:03.793Z,102150.28
2023-05-19T14:34:45.360Z,102156.13
2023-05-19T14:37:19.730Z,102157.34
2023-05-19T14:40:07.234Z,102156.22
2023-05-19T15:21:24.720Z,102167.84
2023-05-19T15:24:04.306Z,102165.88
2023-05-19T15:26:46.654Z,102157.19
2023-05-19T15:29:23.277Z,102159.91
2023-05-19T15:32:00.752Z,102156.81
2023-05-19T15:34:44.687Z,102160.31
2023-05-19T15:37:30.996Z,102159.41
2023-05-19T15:40:13.401Z,102150.19
2023-05-19T15:42:45.392Z,102154.28
2023-05-19T15:45:24.251Z,102142.09
2023-05-19T15:52:20.677Z,102140.03
2023-05-19T15:54:59.884Z,102154.97
2023-05-19T15:57:32.754Z,102142.84
2023-05-19T16:00:29.278Z,102157.19
2023-05-19T16:18:22.095Z,102143.72
2023-05-19T16:23:53.414Z,102140.56
2023-05-19T16:26:31.518Z,102143.22
2023-05-19T16:59:05.187Z,102137.91
2023-05-19T17:01:39.867Z,102146.91
2023-05-19T17:04:12.623Z,102146.94
2023-05-19T17:06:46.531Z,102147.44
2023-05-19T17:09:25.722Z,102149.13
2023-05-19T17:11:57.871Z,102150.34
2023-05-19T17:14:32.750Z,102145.41
2023-05-19T17:17:04.821Z,102146.25
2023-05-19T17:19:55.507Z,102147.47
2023-05-19T17:22:30.118Z,102141.53
2023-05-19T17:25:02.735Z,102147.47
2023-05-19T17:27:35.931Z,102149.66
2023-05-19T17:30:16.749Z,102152.22
2023-05-19T17:32:51.884Z,102153.75
2023-05-19T17:35:29.175Z,102151.88
2023-05-19T17:38:01.496Z,102154.78
2023-05-19T17:40:34.023Z,102149.16
2023-05-19T17:43:06.483Z,102148.47
2023-05-19T17:45:41.847Z,102148.97
2023-05-19T17:48:14.660Z,102151.19
2023-05-19T17:50:49.669Z,102151.00
2023-05-19T17:53:24.170Z,102155.25
2023-05-19T17:56:01.309Z,102156.78
2023-05-19T17:58:34.078Z,102155.75
2023-05-19T18:01:09.811Z,102165.59
2023-05-19T18:03:43.921Z,102152.72
2023-05-19T18:06:16.707Z,102157.81
2023-05-19T18:08:51.844Z,102155.09
2023-05-19T18:11:25.031Z,102150.50
2023-05-19T18:13:57.229Z,102155.97
2023-05-19T18:16:34.768Z,102156.28
2023-05-19T18:19:07.286Z,102152.41
2023-05-19T18:21:40.230Z,102158.53
2023-05-19T18:24:22.736Z,102155.47
2023-05-19T18:26:55.456Z,102155.78
2023-05-19T18:29:37.869Z,102164.44
2023-05-19T18:32:14.806Z,102167.16
2023-05-19T18:34:47.509Z,102168.81
2023-05-19T18:37:21.295Z,102167.78
2023-05-19T18:39:53.120Z,102172.53
2023-05-19T18:42:25.691Z,102171.34
2023-05-19T18:44:58.588Z,102168.63
2023-05-19T18:47:34.595Z,102177.44
2023-05-19T18:50:10.231Z,102178.63
2023-05-19T18:52:47.280Z,102167.25
2023-05-19T18:55:21.036Z,102175.84
2023-05-19T18:57:54.650Z,102188.69
2023-05-19T19:00:28.390Z,102196.59
2023-05-19T19:03:05.029Z,102188.63
2023-05-19T19:05:37.491Z,102178.78
2023-05-19T19:08:10.995Z,102177.44
2023-05-19T19:10:42.930Z,102175.06
2023-05-19T19:13:16.601Z,102174.16
2023-05-19T19:15:49.220Z,102184.19
2023-05-19T19:18:27.416Z,102180.75
2023-05-19T19:38:43.044Z,102188.34
2023-05-19T19:48:04.270Z,102191.16
2023-05-19T19:50:38.470Z,102194.19
2023-05-19T19:56:21.549Z,102186.38
2023-05-19T20:09:09.429Z,102195.19
2023-05-19T20:11:43.162Z,102191.66
2023-05-19T20:14:20.287Z,102194.34
2023-05-19T20:17:34.135Z,102194.28
2023-05-19T20:23:41.601Z,102201.41
2023-05-19T20:29:30.196Z,102206.44
2023-05-19T20:34:59.193Z,102215.00
2023-05-19T20:37:32.998Z,102218.56
2023-05-19T20:40:13.599Z,102224.59
2023-05-19T20:42:48.051Z,102221.75
2023-05-19T20:45:22.316Z,102210.94
2023-05-19T20:48:01.043Z,102219.72
2023-05-19T20:50:35.203Z,102220.19
2023-05-19T20:53:13.520Z,102222.75
2023-05-19T20:55:55.097Z,102223.22
2023-05-19T20:58:31.327Z,102225.38
2023-05-19T21:01:04.316Z,102210.59
2023-05-19T21:03:37.388Z,102218.03
2023-05-19T21:08:57.236Z,102216.38
2023-05-19T21:11:33.679Z,102211.59
2023-05-19T21:14:10.793Z,102218.56
2023-05-19T21:16:43.635Z,102223.91
2023-05-19T21:22:05.173Z,102225.28
2023-05-19T21:27:43.093Z,102226.50
2023-05-19T21:30:24.852Z,102236.47
2023-05-19T21:32:57.654Z,102230.78
2023-05-19T21:35:31.437Z,102238.91
2023-05-19T21:38:22.044Z,102238.22
2023-05-19T21:40:58.126Z,102247.47
2023-05-19T21:46:38.779Z,102249.22
2023-05-19T21:55:06.248Z,102249.88
2023-05-19T21:57:40.000Z,102245.31
2023-05-19T22:00:17.239Z,102240.34
2023-05-19T22:05:57.219Z,102251.59
2023-05-19T22:08:43.081Z,102251.91
2023-05-19T22:11:22.332Z,102247.03
2023-05-19T22:14:08.121Z,102242.25
2023-05-19T22:16:51.138Z,102253.03
2023-05-19T22:19:32.043Z,102247.63
2023-05-19T22:22:13.841Z,102254.63
2023-05-19T22:27:45.020Z,102250.94
2023-05-19T22:30:24.881Z,102257.59
2023-05-19T22:33:23.234Z,102254.03
2023-05-19T22:35:58.883Z,102257.78
2023-05-19T22:41:42.917Z,102261.16
2023-05-19T22:44:22.010Z,102265.47
2023-05-19T22:47:06.745Z,102269.47
2023-05-19T22:50:04.735Z,102257.97
2023-05-19T22:52:40.409Z,102256.84
2023-05-19T22:55:25.833Z,102262.09
2023-05-19T22:58:02.029Z,102263.66
2023-05-19T23:00:37.173Z,102270.19
2023-05-19T23:06:13.570Z,102264.09
2023-05-19T23:09:01.056Z,102260.84
2023-05-19T23:11:38.366Z,102264.94
2023-05-19T23:17:19.295Z,102260.41
2023-05-19T23:19:54.186Z,102256.56
2023-05-19T23:30:02.022Z,102252.75
2023-05-19T23:32:35.987Z,102258.28
2023-05-19T23:35:15.474Z,102260.28
2023-05-19T23:37:49.448Z,102253.16
2023-05-19T23:57:25.312Z,102254.88
